Time;durP1;ratioP1;P1;durP2;ratioP2;P2;SDS_P1;SDS_P2;PMS_P1;PMS_P2;Temp;Humidity;BMP_temperature;BMP_pressure;BME280_temperature;BME280_humidity;BME280_pressure;Samples;Min_cycle;Max_cycle;Signal;HPM_P1;HPM_P2
2021/12/31 00:02:16;;;;;;;2.05;1.40;;;11.40;99.90;;;;;;5030771;28;20029;-82
2021/12/31 00:04:41;;;;;;;2.55;1.35;;;11.30;99.90;;;;;;5012987;28;20052;-82
2021/12/31 00:07:07;;;;;;;3.17;1.67;;;11.30;99.90;;;;;;5030527;28;20030;-81
2021/12/31 00:09:33;;;;;;;3.47;1.40;;;11.30;99.90;;;;;;5029668;28;20496;-81
2021/12/31 00:11:58;;;;;;;2.00;1.40;;;11.30;99.90;;;;;;5030803;28;20044;-82
2021/12/31 00:14:25;;;;;;;1.33;1.13;;;11.30;99.90;;;;;;5030772;28;20026;-82
2021/12/31 00:16:50;;;;;;;1.40;1.27;;;11.20;99.90;;;;;;5030568;28;20026;-82
2021/12/31 00:19:16;;;;;;;1.23;1.00;;;11.20;99.90;;;;;;5029205;28;20060;-82
2021/12/31 00:21:46;;;;;;;2.13;1.15;;;11.20;99.90;;;;;;5030989;28;20028;-82
2021/12/31 00:24:11;;;;;;;1.77;1.20;;;11.20;99.90;;;;;;5028848;28;20083;-83
2021/12/31 00:26:37;;;;;;;2.83;1.10;;;11.20;99.90;;;;;;5030522;28;20061;-82
2021/12/31 00:29:06;;;;;;;2.03;1.25;;;11.20;99.90;;;;;;5030042;28;20036;-82
2021/12/31 00:31:31;;;;;;;1.58;1.00;;;11.20;99.90;;;;;;5030459;28;20021;-82
2021/12/31 00:33:57;;;;;;;3.17;1.13;;;11.20;99.90;;;;;;5030341;28;20480;-82
2021/12/31 00:36:36;;;;;;;2.72;1.10;;;11.20;99.90;;;;;;5030361;28;20026;-82
2021/12/31 00:39:02;;;;;;;2.47;1.27;;;11.20;99.90;;;;;;5030336;28;20057;-82
2021/12/31 00:41:28;;;;;;;1.50;1.20;;;11.20;99.90;;;;;;5028835;28;20077;-83
2021/12/31 00:43:53;;;;;;;3.88;1.40;;;11.20;99.90;;;;;;5021299;28;20382;-83
2021/12/31 00:46:19;;;;;;;1.73;1.10;;;11.20;99.90;;;;;;5030307;28;20538;-82
2021/12/31 00:48:44;;;;;;;1.50;1.00;;;11.20;99.90;;;;;;5030014;28;20476;-83
2021/12/31 00:51:10;;;;;;;1.53;0.90;;;11.20;99.90;;;;;;5031014;28;20813;-82
2021/12/31 00:53:35;;;;;;;2.22;1.23;;;11.20;99.90;;;;;;5029834;28;20508;-82
2021/12/31 00:56:01;;;;;;;2.28;1.00;;;11.20;99.90;;;;;;5030417;28;20501;-82
2021/12/31 00:58:27;;;;;;;0.90;0.80;;;11.20;99.90;;;;;;5028701;28;20465;-83
2021/12/31 01:00:53;;;;;;;2.22;1.23;;;11.20;99.90;;;;;;5030266;28;20514;-82
2021/12/31 01:03:18;;;;;;;1.92;0.93;;;11.20;99.90;;;;;;5028486;28;20108;-83
2021/12/31 01:05:44;;;;;;;1.40;0.88;;;11.20;99.90;;;;;;5030331;28;20033;-83
2021/12/31 01:08:10;;;;;;;1.55;0.90;;;11.20;99.90;;;;;;5029741;28;20034;-83
2021/12/31 01:10:35;;;;;;;1.33;1.00;;;11.30;99.90;;;;;;5030018;28;20064;-82
2021/12/31 01:13:07;;;;;;;1.02;0.88;;;11.20;99.90;;;;;;5028295;28;20022;-82
2021/12/31 01:15:37;;;;;;;2.33;0.90;;;11.20;99.90;;;;;;5030202;28;20049;-82
2021/12/31 01:18:17;;;;;;;2.17;1.00;;;11.20;99.90;;;;;;5029923;28;20517;-83
2021/12/31 01:20:43;;;;;;;1.13;1.00;;;11.20;99.90;;;;;;5028827;28;20035;-82
2021/12/31 01:23:09;;;;;;;0.95;0.85;;;11.20;99.90;;;;;;5034071;28;20018;-83
2021/12/31 01:25:36;;;;;;;0.82;0.80;;;11.20;99.90;;;;;;5033799;28;20041;-82
2021/12/31 01:28:02;;;;;;;0.95;0.88;;;11.20;99.90;;;;;;5033667;28;20022;-82
2021/12/31 01:30:28;;;;;;;1.10;0.90;;;11.20;99.90;;;;;;5033542;28;20057;-82
2021/12/31 01:32:55;;;;;;;1.15;0.90;;;11.20;99.90;;;;;;5033722;28;20049;-83
2021/12/31 01:35:21;;;;;;;1.65;0.90;;;11.20;99.90;;;;;;5033888;28;20485;-82
2021/12/31 01:37:46;;;;;;;1.75;0.93;;;11.20;99.90;;;;;;5033457;28;20030;-83
2021/12/31 01:40:13;;;;;;;1.60;0.90;;;11.20;99.90;;;;;;5033634;28;20029;-83
2021/12/31 01:42:39;;;;;;;1.83;0.80;;;11.20;99.90;;;;;;5030034;28;20167;-82
2021/12/31 01:45:08;;;;;;;0.77;0.77;;;11.20;99.90;;;;;;5017991;28;20030;-83
2021/12/31 01:47:57;;;;;;;1.90;0.90;;;11.20;99.90;;;;;;5012248;28;20033;-82
2021/12/31 01:50:28;;;;;;;1.02;0.80;;;11.20;99.90;;;;;;5012108;28;20030;-83
2021/12/31 01:52:54;;;;;;;2.55;0.93;;;11.20;99.90;;;;;;5013473;28;20030;-83
2021/12/31 01:55:22;;;;;;;0.70;0.70;;;11.20;99.90;;;;;;5013680;28;20036;-82
2021/12/31 01:57:49;;;;;;;1.63;1.05;;;11.20;99.90;;;;;;5013224;28;20039;-83
2021/12/31 02:00:15;;;;;;;2.15;1.10;;;11.10;99.90;;;;;;5013467;28;20156;-83
2021/12/31 02:02:45;;;;;;;1.10;0.98;;;11.10;99.90;;;;;;5012995;28;20112;-83
2021/12/31 02:05:11;;;;;;;1.73;1.00;;;11.10;99.90;;;;;;5013295;28;20030;-83
2021/12/31 02:07:38;;;;;;;1.50;1.15;;;11.10;99.90;;;;;;5013273;28;20033;-80
2021/12/31 02:10:04;;;;;;;2.35;1.10;;;11.10;99.90;;;;;;5013281;28;20033;-82
2021/12/31 02:12:30;;;;;;;1.35;1.00;;;11.10;99.90;;;;;;5013301;28;20033;-82
2021/12/31 02:14:57;;;;;;;1.38;0.98;;;11.10;99.90;;;;;;5012991;28;20045;-82
2021/12/31 02:17:23;;;;;;;2.25;1.00;;;11.10;99.90;;;;;;5013022;28;20032;-83
2021/12/31 02:20:03;;;;;;;1.77;1.10;;;11.10;99.90;;;;;;5012912;28;20037;-83
2021/12/31 02:22:29;;;;;;;2.05;0.90;;;11.10;99.90;;;;;;5013135;28;20029;-83
2021/12/31 02:24:56;;;;;;;2.15;1.00;;;11.10;99.90;;;;;;5013079;28;20396;-83
2021/12/31 02:27:23;;;;;;;1.77;1.10;;;11.10;99.90;;;;;;5012887;28;20032;-82
2021/12/31 02:29:49;;;;;;;2.05;1.10;;;11.10;99.90;;;;;;5012846;28;20034;-83
2021/12/31 02:32:15;;;;;;;1.30;1.00;;;11.10;99.90;;;;;;5012167;28;20102;-83
2021/12/31 02:34:41;;;;;;;1.33;1.00;;;11.00;99.90;;;;;;5012217;28;20034;-82
2021/12/31 02:37:06;;;;;;;1.17;0.98;;;11.00;99.90;;;;;;5012704;28;20426;-82
2021/12/31 02:39:34;;;;;;;2.25;1.08;;;11.00;99.90;;;;;;5027813;28;20040;-83
2021/12/31 02:42:00;;;;;;;2.38;1.00;;;11.10;99.90;;;;;;5031059;28;20054;-83
2021/12/31 02:44:25;;;;;;;1.58;1.23;;;11.00;99.90;;;;;;5020437;28;20395;-83
2021/12/31 02:46:51;;;;;;;3.13;1.05;;;11.00;99.90;;;;;;5012647;28;20037;-83
2021/12/31 02:49:22;;;;;;;1.80;0.90;;;11.00;99.90;;;;;;5011155;28;20057;-83
2021/12/31 02:51:48;;;;;;;2.95;0.90;;;11.00;99.90;;;;;;5012655;28;20468;-82
2021/12/31 02:54:15;;;;;;;1.70;1.10;;;10.90;99.90;;;;;;5012488;28;20167;-82
2021/12/31 02:56:44;;;;;;;1.40;1.08;;;10.90;99.90;;;;;;5012470;28;20100;-82
2021/12/31 02:59:10;;;;;;;1.70;0.85;;;10.90;99.90;;;;;;5011999;28;20040;-82
2021/12/31 03:01:36;;;;;;;0.98;0.80;;;10.90;99.90;;;;;;5012089;28;20025;-82
2021/12/31 03:04:04;;;;;;;2.33;1.05;;;10.90;99.90;;;;;;5011687;28;20125;-82
2021/12/31 03:06:30;;;;;;;0.90;0.80;;;10.80;99.90;;;;;;5012153;28;20390;-82
2021/12/31 03:08:57;;;;;;;1.40;1.00;;;10.80;99.90;;;;;;5010827;28;20450;-82
2021/12/31 03:11:24;;;;;;;4.47;1.30;;;10.80;99.90;;;;;;5012135;28;20494;-82
2021/12/31 03:13:54;;;;;;;2.60;1.08;;;10.80;99.90;;;;;;5011909;28;20033;-82
2021/12/31 03:16:21;;;;;;;2.72;1.10;;;10.80;99.90;;;;;;5011939;28;20478;-82
2021/12/31 03:18:48;;;;;;;3.23;1.10;;;10.80;99.90;;;;;;5010666;28;20404;-81
2021/12/31 03:21:21;;;;;;;4.07;1.00;;;10.80;99.90;;;;;;5027085;28;20443;-81
2021/12/31 03:23:48;;;;;;;1.95;1.10;;;10.70;99.90;;;;;;5012024;28;20033;-81
2021/12/31 03:26:13;;;;;;;1.63;1.00;;;10.80;99.90;;;;;;5012320;28;20075;-82
2021/12/31 03:28:39;;;;;;;3.08;1.10;;;10.80;99.90;;;;;;5017989;28;20378;-81
2021/12/31 03:31:05;;;;;;;2.20;1.00;;;10.80;99.90;;;;;;5012478;28;20022;-81
2021/12/31 03:33:30;;;;;;;2.58;1.02;;;10.80;99.90;;;;;;5012375;28;20026;-81
2021/12/31 03:35:56;;;;;;;1.08;0.90;;;10.80;99.90;;;;;;5012583;28;20113;-82
2021/12/31 03:38:21;;;;;;;6.18;1.00;;;10.80;99.90;;;;;;5012242;28;20414;-83
2021/12/31 03:40:47;;;;;;;2.07;1.10;;;10.80;99.90;;;;;;5012252;28;20065;-82
2021/12/31 03:43:14;;;;;;;1.07;0.90;;;10.80;99.90;;;;;;5018020;28;20053;-82
2021/12/31 03:45:40;;;;;;;2.50;1.20;;;10.80;99.90;;;;;;5011584;28;20042;-82
2021/12/31 03:48:06;;;;;;;4.20;1.70;;;10.80;99.90;;;;;;5010303;28;20085;-82
2021/12/31 03:50:32;;;;;;;0.98;0.85;;;10.80;99.90;;;;;;5011835;28;20029;-81
2021/12/31 03:52:58;;;;;;;1.40;1.00;;;10.80;99.90;;;;;;5010278;28;20034;-82
2021/12/31 03:55:23;;;;;;;1.60;1.00;;;10.80;99.90;;;;;;5011510;28;20036;-82
2021/12/31 03:57:49;;;;;;;2.67;1.10;;;10.80;99.90;;;;;;5011299;28;20068;-82
2021/12/31 04:00:15;;;;;;;2.22;1.17;;;10.80;99.90;;;;;;5010284;28;20037;-82
2021/12/31 04:02:41;;;;;;;2.35;1.15;;;10.80;99.90;;;;;;5011152;28;20080;-83
2021/12/31 04:05:07;;;;;;;1.73;1.10;;;10.80;99.90;;;;;;5011563;28;20677;-82
2021/12/31 04:07:32;;;;;;;1.40;0.80;;;10.80;99.90;;;;;;5011379;28;20475;-82
2021/12/31 04:09:58;;;;;;;1.60;0.95;;;10.80;99.90;;;;;;5011455;28;20037;-83
2021/12/31 04:12:24;;;;;;;3.23;1.17;;;10.80;99.90;;;;;;5011567;28;20025;-83
2021/12/31 04:14:51;;;;;;;2.80;1.17;;;10.80;99.90;;;;;;5011306;28;20030;-82
2021/12/31 04:17:16;;;;;;;2.60;1.10;;;10.70;99.90;;;;;;5011335;28;20030;-83
2021/12/31 04:19:42;;;;;;;3.00;1.30;;;10.70;99.90;;;;;;5011083;28;20518;-83
2021/12/31 04:22:12;;;;;;;1.33;1.00;;;10.70;99.90;;;;;;5011476;28;20475;-82
2021/12/31 04:27:10;;;;;;;2.10;1.20;;;10.70;99.90;;;;;;5011397;28;20544;-83
2021/12/31 04:29:36;;;;;;;1.70;1.17;;;10.70;99.90;;;;;;5011092;28;20038;-82
2021/12/31 04:32:04;;;;;;;1.65;0.90;;;10.70;99.90;;;;;;5011260;28;20185;-83
2021/12/31 04:34:30;;;;;;;1.60;1.00;;;10.70;99.90;;;;;;5010868;28;20057;-82
2021/12/31 04:36:56;;;;;;;1.53;1.00;;;10.70;99.90;;;;;;5011279;28;20460;-82
2021/12/31 04:39:22;;;;;;;1.50;1.10;;;10.70;99.90;;;;;;5009574;28;20037;-82
2021/12/31 04:41:48;;;;;;;1.97;1.30;;;10.60;99.90;;;;;;5012989;28;20510;-82
2021/12/31 04:44:13;;;;;;;2.88;1.20;;;10.60;99.90;;;;;;5021621;28;20040;-82
2021/12/31 04:46:39;;;;;;;3.67;1.20;;;10.60;99.90;;;;;;5030404;28;20037;-81
2021/12/31 04:49:07;;;;;;;2.13;1.27;;;10.60;99.90;;;;;;5030136;28;20036;-81
2021/12/31 04:51:34;;;;;;;1.80;1.10;;;10.60;99.90;;;;;;5030512;28;20028;-82
2021/12/31 04:53:59;;;;;;;1.77;1.20;;;10.60;99.90;;;;;;5030653;28;20033;-82
2021/12/31 04:56:25;;;;;;;1.40;1.13;;;10.60;99.90;;;;;;5032593;28;20021;-82
2021/12/31 04:58:52;;;;;;;3.72;1.40;;;10.60;99.90;;;;;;5034525;28;20038;-82
2021/12/31 05:01:21;;;;;;;3.88;1.50;;;10.60;99.90;;;;;;5034727;28;20032;-82
2021/12/31 05:03:50;;;;;;;4.50;1.38;;;10.60;99.90;;;;;;5034872;28;20026;-81
2021/12/31 05:06:15;;;;;;;2.33;1.20;;;10.60;99.90;;;;;;5035765;28;20096;-81
2021/12/31 05:08:41;;;;;;;1.73;1.10;;;10.60;99.90;;;;;;5034475;28;20459;-81
2021/12/31 05:11:07;;;;;;;2.53;1.33;;;10.60;99.90;;;;;;5034965;28;20125;-81
2021/12/31 05:13:35;;;;;;;3.67;1.30;;;10.50;99.90;;;;;;5034497;28;20359;-82
2021/12/31 05:16:03;;;;;;;2.05;1.20;;;10.50;99.90;;;;;;5034432;28;20067;-82
2021/12/31 05:18:30;;;;;;;1.87;1.30;;;10.50;99.90;;;;;;5033698;28;20382;-81
2021/12/31 05:20:56;;;;;;;2.17;1.30;;;10.50;99.90;;;;;;5034707;28;20034;-81
2021/12/31 05:23:21;;;;;;;3.33;1.30;;;10.50;99.90;;;;;;5034081;28;20389;-81
2021/12/31 05:25:47;;;;;;;3.70;1.30;;;10.50;99.90;;;;;;5034386;28;20079;-75
2021/12/31 05:28:13;;;;;;;1.40;1.10;;;10.50;99.90;;;;;;5033429;28;20063;-75
2021/12/31 05:30:38;;;;;;;3.00;1.43;;;10.50;99.90;;;;;;5033363;28;20136;-75
2021/12/31 05:33:04;;;;;;;2.33;1.17;;;10.50;99.90;;;;;;5033294;28;20379;-74
2021/12/31 05:35:30;;;;;;;3.47;1.52;;;10.40;99.90;;;;;;5033426;28;20040;-75
2021/12/31 05:37:56;;;;;;;3.23;1.33;;;10.40;99.90;;;;;;5033401;28;20033;-75
2021/12/31 05:40:22;;;;;;;2.08;1.23;;;10.40;99.90;;;;;;5031971;28;20421;-76
2021/12/31 05:42:48;;;;;;;2.03;1.40;;;10.40;99.90;;;;;;5027730;28;20103;-76
2021/12/31 05:45:14;;;;;;;1.70;1.30;;;10.40;99.90;;;;;;5016456;28;20026;-76
2021/12/31 05:47:39;;;;;;;1.53;1.20;;;10.40;99.90;;;;;;5013664;28;20108;-76
2021/12/31 05:50:08;;;;;;;2.03;1.30;;;10.30;99.90;;;;;;5013535;28;20030;-76
2021/12/31 05:52:36;;;;;;;2.53;1.30;;;10.30;99.90;;;;;;5013405;28;20061;-76
2021/12/31 05:55:05;;;;;;;3.37;1.40;;;10.20;99.90;;;;;;5013462;28;20061;-76
2021/12/31 05:57:30;;;;;;;2.80;1.37;;;10.20;99.90;;;;;;5013190;28;20025;-76
2021/12/31 05:59:56;;;;;;;2.33;1.20;;;10.10;99.90;;;;;;5013206;28;20113;-75
2021/12/31 06:02:21;;;;;;;2.13;1.30;;;10.00;99.90;;;;;;5013290;28;20068;-75
2021/12/31 06:04:47;;;;;;;4.07;1.50;;;9.90;99.90;;;;;;5013377;28;20038;-75
2021/12/31 06:07:12;;;;;;;3.27;1.40;;;9.90;99.90;;;;;;5012742;28;20038;-75
2021/12/31 06:09:38;;;;;;;3.43;1.60;;;9.80;99.90;;;;;;5013045;28;20026;-75
2021/12/31 06:12:04;;;;;;;3.97;1.50;;;9.70;99.90;;;;;;5013374;28;20116;-77
2021/12/31 06:14:30;;;;;;;1.97;1.40;;;9.60;99.90;;;;;;5013324;28;20772;-78
2021/12/31 06:17:02;;;;;;;3.70;1.63;;;9.60;99.90;;;;;;5013233;28;20109;-78
2021/12/31 06:19:28;;;;;;;4.90;1.70;;;9.50;99.90;;;;;;5027242;28;20091;-78
2021/12/31 06:21:53;;;;;;;2.87;1.50;;;9.50;99.90;;;;;;5013045;28;20033;-79
2021/12/31 06:24:19;;;;;;;2.10;1.50;;;9.40;99.90;;;;;;5013044;28;20398;-78
2021/12/31 06:26:44;;;;;;;2.73;1.50;;;9.30;99.90;;;;;;5013089;28;20072;-78
2021/12/31 06:29:10;;;;;;;3.50;1.70;;;9.30;99.90;;;;;;5012581;28;20510;-78
2021/12/31 06:31:36;;;;;;;6.30;2.97;;;9.20;99.90;;;;;;5028102;28;20391;-78
2021/12/31 06:34:01;;;;;;;6.07;3.20;;;9.20;99.90;;;;;;5012439;28;20044;-78
2021/12/31 06:36:27;;;;;;;6.73;3.50;;;9.10;99.90;;;;;;5012849;28;20034;-78
2021/12/31 06:38:52;;;;;;;5.87;3.33;;;9.10;99.90;;;;;;5026820;28;20038;-79
2021/12/31 06:41:20;;;;;;;5.20;3.20;;;9.10;99.90;;;;;;5031249;28;20049;-78
2021/12/31 06:43:46;;;;;;;5.37;2.70;;;9.10;99.90;;;;;;5022426;28;20057;-79
2021/12/31 06:46:11;;;;;;;4.70;2.50;;;9.00;99.90;;;;;;5018747;28;20126;-77
2021/12/31 06:48:37;;;;;;;4.20;2.60;;;9.00;99.90;;;;;;5031839;28;20036;-78
2021/12/31 06:51:02;;;;;;;3.63;1.80;;;9.00;99.90;;;;;;5032312;28;20482;-77
2021/12/31 06:53:28;;;;;;;4.17;2.00;;;9.00;99.90;;;;;;5032268;28;20025;-79
2021/12/31 06:55:54;;;;;;;3.80;2.30;;;9.00;99.90;;;;;;5032089;28;20037;-78
2021/12/31 06:58:19;;;;;;;5.10;2.07;;;9.00;99.90;;;;;;5032211;28;20060;-77
2021/12/31 07:00:45;;;;;;;2.50;1.63;;;9.00;99.90;;;;;;5032081;28;20029;-77
2021/12/31 07:03:12;;;;;;;3.40;2.07;;;9.00;99.90;;;;;;5031456;28;20109;-79
2021/12/31 07:05:41;;;;;;;4.57;1.73;;;9.00;99.90;;;;;;5031833;28;20072;-77
2021/12/31 07:08:06;;;;;;;5.63;1.60;;;9.00;99.90;;;;;;5031966;28;20025;-77
2021/12/31 07:10:32;;;;;;;3.13;1.40;;;9.00;99.90;;;;;;5032095;28;20397;-77
2021/12/31 07:12:59;;;;;;;2.00;1.63;;;9.00;99.90;;;;;;5030131;28;20633;-77
2021/12/31 07:15:25;;;;;;;3.33;1.30;;;9.00;99.90;;;;;;5031949;28;20052;-78
2021/12/31 07:17:51;;;;;;;3.50;1.60;;;9.00;99.90;;;;;;5031428;28;20434;-78
2021/12/31 07:20:17;;;;;;;2.83;1.60;;;9.00;99.90;;;;;;5031217;28;20423;-79
2021/12/31 07:22:43;;;;;;;1.90;1.50;;;8.90;99.90;;;;;;5031709;28;20025;-79
2021/12/31 07:25:08;;;;;;;2.20;1.40;;;9.00;99.90;;;;;;5031389;28;20463;-78
2021/12/31 07:27:34;;;;;;;2.00;1.40;;;9.00;99.90;;;;;;5031559;28;20028;-79
2021/12/31 07:29:59;;;;;;;3.13;1.50;;;9.00;99.90;;;;;;5031253;28;20124;-79
2021/12/31 07:32:26;;;;;;;6.03;1.80;;;9.00;99.90;;;;;;5031392;28;20037;-79
2021/12/31 07:34:52;;;;;;;2.40;1.50;;;9.00;99.90;;;;;;5032429;28;20025;-85
2021/12/31 07:37:18;;;;;;;2.07;1.50;;;9.00;99.90;;;;;;5030150;28;20044;-79
2021/12/31 07:39:48;;;;;;;4.27;1.50;;;9.00;99.90;;;;;;5028872;28;20037;-78
2021/12/31 07:42:14;;;;;;;1.83;1.40;;;9.00;99.90;;;;;;5023272;28;20052;-78
2021/12/31 07:44:39;;;;;;;2.67;1.70;;;8.90;99.90;;;;;;5020895;28;20037;-78
2021/12/31 07:47:05;;;;;;;4.40;1.70;;;9.00;99.90;;;;;;5030898;28;20041;-78
2021/12/31 07:49:31;;;;;;;2.50;1.50;;;9.00;99.90;;;;;;5030917;28;20386;-77
2021/12/31 07:51:56;;;;;;;3.27;1.80;;;8.90;99.90;;;;;;5033051;28;20463;-67
2021/12/31 07:54:22;;;;;;;2.93;1.80;;;9.00;99.90;;;;;;5032711;28;20459;-83
2021/12/31 07:56:47;;;;;;;6.37;1.40;;;9.00;99.90;;;;;;5013127;28;20026;-79
2021/12/31 07:59:13;;;;;;;2.97;1.50;;;9.10;99.90;;;;;;5027209;28;20030;-79
2021/12/31 08:01:39;;;;;;;3.43;1.93;;;9.10;99.90;;;;;;5008539;28;20037;-79
2021/12/31 08:04:05;;;;;;;2.07;1.50;;;9.10;99.90;;;;;;5024775;28;20048;-82
2021/12/31 08:06:30;;;;;;;1.70;1.33;;;9.20;99.90;;;;;;5032302;28;20036;-76
2021/12/31 08:08:56;;;;;;;2.87;1.23;;;9.20;99.90;;;;;;5033352;28;20029;-77
2021/12/31 08:11:22;;;;;;;4.40;1.70;;;9.20;99.90;;;;;;5032942;28;20025;-77
2021/12/31 08:13:48;;;;;;;2.27;1.27;;;9.20;99.90;;;;;;5032595;28;20501;-78
2021/12/31 08:16:13;;;;;;;5.10;1.30;;;9.30;99.90;;;;;;5032832;28;20061;-78
2021/12/31 08:18:39;;;;;;;3.57;1.37;;;9.30;99.90;;;;;;5032680;28;20467;-78
2021/12/31 08:21:06;;;;;;;3.40;1.30;;;9.40;99.90;;;;;;5032322;28;20037;-73
2021/12/31 08:23:32;;;;;;;2.10;1.47;;;9.40;99.90;;;;;;5030333;28;20032;-67
2021/12/31 08:25:59;;;;;;;2.00;1.40;;;9.50;99.90;;;;;;5031801;28;20413;-67
2021/12/31 08:28:25;;;;;;;1.80;1.33;;;9.50;99.90;;;;;;5031294;28;20033;-67
2021/12/31 08:30:50;;;;;;;2.60;1.10;;;9.60;99.90;;;;;;5031457;28;20483;-68
2021/12/31 08:33:16;;;;;;;1.60;1.10;;;9.60;99.90;;;;;;5031330;28;20032;-66
2021/12/31 08:35:42;;;;;;;1.50;1.10;;;9.70;99.90;;;;;;5031392;28;20030;-66
2021/12/31 08:38:07;;;;;;;2.37;1.20;;;9.70;99.90;;;;;;5030858;28;20100;-66
2021/12/31 08:40:33;;;;;;;1.90;1.50;;;9.80;99.90;;;;;;5031083;28;20094;-67
2021/12/31 08:42:58;;;;;;;1.90;1.40;;;9.80;99.90;;;;;;5029408;28;20054;-67
2021/12/31 08:45:25;;;;;;;2.80;1.77;;;9.90;99.90;;;;;;5031063;28;20108;-67
2021/12/31 08:47:51;;;;;;;3.80;1.70;;;9.90;99.90;;;;;;5030546;28;20116;-66
2021/12/31 08:50:17;;;;;;;3.00;1.83;;;10.00;99.90;;;;;;5030612;28;20025;-67
2021/12/31 08:52:42;;;;;;;3.93;2.33;;;10.10;99.90;;;;;;5030358;28;20040;-67
2021/12/31 08:55:11;;;;;;;4.97;2.70;;;10.10;99.90;;;;;;5030854;28;20025;-68
2021/12/31 08:57:36;;;;;;;5.37;2.47;;;10.20;99.90;;;;;;5030637;28;20079;-67
2021/12/31 09:00:04;;;;;;;2.90;1.83;;;10.20;99.90;;;;;;5030266;28;20037;-68
2021/12/31 09:02:31;;;;;;;3.07;1.63;;;10.20;99.90;;;;;;5028834;28;20039;-67
2021/12/31 09:04:56;;;;;;;4.27;1.40;;;10.20;99.90;;;;;;5031422;28;20084;-85
2021/12/31 09:07:22;;;;;;;2.00;1.40;;;10.30;99.90;;;;;;5032613;28;20129;-74
2021/12/31 09:09:47;;;;;;;3.60;1.60;;;10.30;99.90;;;;;;5032557;28;20076;-75
2021/12/31 09:12:13;;;;;;;2.20;1.30;;;10.30;99.90;;;;;;5032674;28;20077;-84
2021/12/31 09:14:39;;;;;;;1.43;1.17;;;10.30;99.90;;;;;;5032578;28;20033;-76
2021/12/31 09:17:04;;;;;;;2.07;1.37;;;10.20;99.90;;;;;;5032771;28;20032;-76
2021/12/31 09:19:30;;;;;;;1.83;1.30;;;10.30;99.90;;;;;;5032802;28;20025;-77
2021/12/31 09:21:57;;;;;;;1.30;1.10;;;10.30;99.90;;;;;;5033013;28;20053;-76
2021/12/31 09:24:27;;;;;;;3.10;1.87;;;10.30;99.90;;;;;;5032577;28;20022;-77
2021/12/31 09:26:52;;;;;;;3.03;1.00;;;10.30;99.90;;;;;;5031489;28;20033;-77
2021/12/31 09:29:20;;;;;;;1.30;1.10;;;10.30;99.90;;;;;;5032591;28;20300;-76
2021/12/31 09:31:52;;;;;;;1.80;1.20;;;10.40;99.90;;;;;;5032572;28;20103;-78
2021/12/31 09:34:18;;;;;;;1.37;1.00;;;10.40;99.90;;;;;;5032431;28;20029;-77
2021/12/31 09:36:43;;;;;;;1.77;1.20;;;10.40;99.90;;;;;;5031269;28;20097;-77
2021/12/31 09:39:09;;;;;;;1.67;1.20;;;10.50;99.90;;;;;;5032208;28;20502;-77
2021/12/31 09:41:35;;;;;;;2.47;1.57;;;10.50;99.90;;;;;;5031294;28;20114;-77
2021/12/31 09:44:01;;;;;;;1.63;1.30;;;10.60;99.90;;;;;;5036540;28;20037;-77
2021/12/31 09:46:27;;;;;;;2.92;1.50;;;10.60;99.90;;;;;;5036110;28;20582;-77
2021/12/31 09:48:52;;;;;;;2.08;1.27;;;10.60;99.90;;;;;;5035791;28;20061;-77
2021/12/31 09:51:18;;;;;;;2.17;1.50;;;10.60;99.90;;;;;;5023347;28;20101;-77
2021/12/31 09:53:44;;;;;;;3.08;1.85;;;10.70;99.90;;;;;;5015956;28;20026;-77
2021/12/31 09:56:10;;;;;;;3.03;1.60;;;10.70;99.90;;;;;;5014476;28;20494;-77
2021/12/31 09:58:36;;;;;;;2.07;1.30;;;10.80;99.90;;;;;;5014474;28;20026;-77
2021/12/31 10:01:03;;;;;;;1.30;1.13;;;10.90;99.90;;;;;;5014118;28;20037;-77
2021/12/31 10:03:31;;;;;;;2.70;1.50;;;11.00;99.90;;;;;;5015307;28;20084;-81
2021/12/31 10:06:08;;;;;;;4.20;1.60;;;11.00;99.90;;;;;;5015713;28;20076;-82
2021/12/31 10:08:48;;;;;;;3.00;1.40;;;11.20;99.90;;;;;;5029636;28;20033;-84
2021/12/31 10:11:19;;;;;;;2.38;1.40;;;11.50;99.90;;;;;;5017538;28;20108;-77
2021/12/31 10:13:56;;;;;;;3.78;1.27;;;11.80;99.90;;;;;;5035606;28;20025;-77
2021/12/31 10:16:35;;;;;;;2.67;1.42;;;12.00;99.90;;;;;;5035014;28;20029;-76
2021/12/31 10:19:08;;;;;;;2.00;1.30;;;12.20;99.90;;;;;;5034882;28;20101;-76
2021/12/31 10:21:38;;;;;;;2.72;1.33;;;12.10;99.90;;;;;;5034874;28;20108;-76
2021/12/31 10:24:25;;;;;;;1.60;1.10;;;12.20;99.90;;;;;;5035019;28;20057;-77
2021/12/31 10:26:52;;;;;;;1.52;1.17;;;12.10;99.90;;;;;;5024561;28;20118;-76
2021/12/31 10:29:17;;;;;;;2.55;1.27;;;12.10;99.90;;;;;;5034765;28;20470;-76
2021/12/31 10:31:53;;;;;;;3.33;1.20;;;12.10;99.90;;;;;;5034998;28;20079;-75
2021/12/31 10:34:31;;;;;;;2.67;1.20;;;12.10;99.90;;;;;;5034821;28;20103;-76
2021/12/31 10:37:00;;;;;;;2.40;1.30;;;12.10;99.90;;;;;;5034784;28;20037;-75
2021/12/31 10:39:27;;;;;;;1.30;1.00;;;12.10;99.90;;;;;;5034544;28;20034;-75
2021/12/31 10:41:59;;;;;;;2.38;1.20;;;12.10;99.90;;;;;;5033984;28;20049;-75
2021/12/31 10:44:47;;;;;;;1.95;1.40;;;12.10;99.90;;;;;;5034199;28;20040;-75
2021/12/31 10:47:19;;;;;;;2.03;1.20;;;12.10;99.90;;;;;;5034410;28;20033;-75
2021/12/31 10:50:03;;;;;;;1.80;1.17;;;12.10;99.90;;;;;;5034243;28;20421;-75
2021/12/31 10:52:40;;;;;;;3.85;1.15;;;12.20;99.90;;;;;;5034005;28;20379;-75
2021/12/31 10:55:25;;;;;;;2.20;1.25;;;12.20;99.90;;;;;;5034088;28;20076;-75
2021/12/31 10:57:57;;;;;;;1.42;1.10;;;12.30;99.90;;;;;;5034325;28;20091;-75
2021/12/31 11:00:26;;;;;;;2.35;1.30;;;12.40;99.90;;;;;;5033874;28;20044;-75
2021/12/31 11:02:53;;;;;;;1.50;1.10;;;12.50;99.90;;;;;;5034442;28;20319;-75
2021/12/31 11:05:21;;;;;;;1.58;1.02;;;12.50;99.90;;;;;;5034195;28;20060;-75
2021/12/31 11:07:47;;;;;;;2.17;0.80;;;12.50;99.90;;;;;;5034216;28;20113;-75
2021/12/31 11:10:14;;;;;;;1.48;0.98;;;12.60;99.90;;;;;;5034014;28;20438;-75
2021/12/31 11:12:45;;;;;;;1.50;1.20;;;12.60;99.90;;;;;;5034259;28;20029;-75
2021/12/31 11:15:11;;;;;;;1.08;0.80;;;12.70;99.90;;;;;;5034108;28;20043;-76
2021/12/31 11:17:37;;;;;;;2.25;1.10;;;12.80;99.90;;;;;;5033977;28;20032;-75
2021/12/31 11:20:05;;;;;;;1.23;0.98;;;12.80;99.90;;;;;;5034008;28;20022;-75
2021/12/31 11:22:31;;;;;;;1.17;0.90;;;12.80;99.90;;;;;;5033972;28;20112;-76
2021/12/31 11:25:18;;;;;;;2.30;1.00;;;12.90;99.90;;;;;;5033891;28;20052;-76
2021/12/31 11:27:47;;;;;;;0.98;0.80;;;12.90;99.90;;;;;;5034065;28;20025;-75
2021/12/31 11:30:38;;;;;;;1.80;1.00;;;13.00;99.90;;;;;;5033906;28;20478;-76
2021/12/31 11:33:09;;;;;;;3.20;1.08;;;13.00;99.90;;;;;;5032065;28;20032;-77
2021/12/31 11:35:58;;;;;;;2.58;1.10;;;13.10;99.90;;;;;;5033613;28;20473;-75
2021/12/31 11:38:24;;;;;;;1.20;1.00;;;13.10;99.90;;;;;;5033942;28;20028;-76
2021/12/31 11:41:01;;;;;;;2.70;0.90;;;13.10;99.90;;;;;;5033703;28;20026;-76
2021/12/31 11:43:29;;;;;;;1.25;0.73;;;13.10;99.90;;;;;;5034034;28;20042;-75
2021/12/31 11:46:15;;;;;;;2.47;0.82;;;13.20;99.90;;;;;;5033636;28;20027;-76
2021/12/31 11:48:50;;;;;;;;;;;13.20;99.90;;;;;;5032468;28;20494;-76
2021/12/31 11:51:34;;;;;;;1.58;1.20;;;13.30;99.90;;;;;;5033561;28;19916;-76
2021/12/31 11:54:00;;;;;;;1.23;0.98;;;13.40;99.90;;;;;;5028505;28;20072;-76
2021/12/31 11:56:39;;;;;;;2.80;0.77;;;13.40;99.90;;;;;;5027083;28;20058;-76
2021/12/31 11:59:08;;;;;;;1.50;0.95;;;13.50;99.90;;;;;;5020926;28;20159;-76
2021/12/31 12:01:36;;;;;;;1.27;0.80;;;13.50;99.90;;;;;;5031680;28;20104;-76
2021/12/31 12:04:22;;;;;;;3.25;0.90;;;13.50;99.90;;;;;;5031043;28;20340;-76
2021/12/31 12:06:58;;;;;;;1.40;0.80;;;13.60;99.90;;;;;;5028760;28;20101;-76
2021/12/31 12:09:44;;;;;;;1.85;0.90;;;13.70;99.90;;;;;;5032906;28;20025;-76
2021/12/31 12:12:16;;;;;;;;;;;13.70;99.90;;;;;;5026670;28;20033;-76
2021/12/31 12:14:47;;;;;;;1.38;0.90;;;13.70;99.90;;;;;;5028563;28;20374;-74
2021/12/31 12:17:31;;;;;;;1.42;0.82;;;13.80;99.90;;;;;;5015733;28;20022;-75
2021/12/31 12:20:02;;;;;;;0.75;0.70;;;13.90;99.90;;;;;;5031735;28;20072;-76
2021/12/31 12:22:40;;;;;;;0.70;0.70;;;14.00;99.90;;;;;;5027871;28;20459;-76
2021/12/31 12:25:18;;;;;;;0.70;0.68;;;14.00;99.90;;;;;;5024635;28;20108;-76
2021/12/31 12:27:47;;;;;;;2.45;1.17;;;14.20;99.90;;;;;;5025114;28;20026;-76
2021/12/31 12:30:15;;;;;;;0.95;0.70;;;14.30;99.90;;;;;;5031905;28;20112;-76
2021/12/31 12:35:25;;;;;;;0.75;0.70;;;14.20;99.90;;;;;;5024860;28;20439;-76
2021/12/31 12:37:56;;;;;;;1.13;0.90;;;14.20;99.90;;;;;;5029981;28;20025;-76
2021/12/31 12:40:39;;;;;;;1.17;0.80;;;14.30;99.90;;;;;;5030511;28;20017;-76
2021/12/31 12:43:08;;;;;;;0.75;0.70;;;14.30;99.90;;;;;;5032334;28;20124;-75
2021/12/31 12:45:38;;;;;;;0.93;0.70;;;14.40;99.90;;;;;;5028092;28;20096;-75
2021/12/31 12:48:04;;;;;;;1.27;0.80;;;14.40;99.90;;;;;;5021463;28;20030;-76
2021/12/31 12:50:29;;;;;;;2.05;0.80;;;14.40;99.90;;;;;;5031056;28;20053;-76
2021/12/31 12:52:55;;;;;;;1.98;0.90;;;14.40;99.90;;;;;;5030283;28;20072;-76
2021/12/31 12:55:22;;;;;;;1.73;0.90;;;14.50;99.90;;;;;;5029976;28;20022;-75
2021/12/31 12:57:58;;;;;;;1.38;0.70;;;14.70;99.90;;;;;;5023650;28;20030;-76
2021/12/31 13:00:38;;;;;;;2.05;0.80;;;14.70;99.90;;;;;;5017916;28;20022;-75